Time;durP1;ratioP1;P1;durP2;ratioP2;P2;SDS_P1;SDS_P2;PMS_P1;PMS_P2;Temp;Humidity;BMP_temperature;BMP_pressure;BME280_temperature;BME280_humidity;BME280_pressure;Samples;Min_cycle;Max_cycle;Signal;HPM_P1;HPM_P2
2023/05/14 00:00:22;;;;;;;44.45;6.32;;;19.20;99.90;;;;;;5071856;28;20106;-68
2023/05/14 00:02:48;;;;;;;38.97;6.90;;;19.20;99.90;;;;;;5071786;28;20020;-68
2023/05/14 00:05:15;;;;;;;54.70;7.10;;;19.20;99.90;;;;;;5071632;28;20024;-69
2023/05/14 00:07:41;;;;;;;45.28;6.07;;;19.20;99.90;;;;;;5103958;28;20115;-68
2023/05/14 00:10:07;;;;;;;42.33;7.00;;;19.10;99.90;;;;;;5071254;28;20033;-68
2023/05/14 00:12:33;;;;;;;28.50;6.60;;;19.20;99.90;;;;;;5071421;28;20025;-67
2023/05/14 00:14:59;;;;;;;36.35;5.53;;;19.00;99.90;;;;;;5071619;28;20033;-69
2023/05/14 00:17:26;;;;;;;37.28;5.97;;;19.00;99.90;;;;;;5071694;28;20021;-69
2023/05/14 00:19:52;;;;;;;40.45;6.45;;;19.00;99.90;;;;;;5071151;28;20079;-69
2023/05/14 00:22:18;;;;;;;37.20;5.68;;;19.00;99.90;;;;;;5071738;28;20096;-70
2023/05/14 00:24:44;;;;;;;31.75;6.15;;;19.00;99.90;;;;;;5071592;28;20063;-68
2023/05/14 00:27:10;;;;;;;52.00;7.43;;;19.00;99.90;;;;;;5071237;28;20017;-69
2023/05/14 00:29:36;;;;;;;33.45;5.10;;;18.90;99.90;;;;;;5069857;28;20024;-69
2023/05/14 00:32:03;;;;;;;34.88;6.85;;;19.00;99.90;;;;;;5071400;28;20024;-69
2023/05/14 00:34:29;;;;;;;22.75;4.93;;;18.90;99.90;;;;;;5071362;28;20043;-69
2023/05/14 00:36:55;;;;;;;32.92;5.88;;;18.90;99.90;;;;;;5069746;28;20024;-69
2023/05/14 00:39:21;;;;;;;30.35;5.50;;;18.90;99.90;;;;;;5071094;28;20020;-68
2023/05/14 00:41:47;;;;;;;34.90;5.82;;;19.00;99.90;;;;;;5069503;28;20060;-70
2023/05/14 00:44:14;;;;;;;37.30;6.18;;;18.90;99.90;;;;;;5070993;28;20077;-69
2023/05/14 00:46:40;;;;;;;34.55;5.45;;;19.00;99.90;;;;;;5071433;28;20028;-69
2023/05/14 00:49:06;;;;;;;42.90;6.20;;;18.90;99.90;;;;;;5071242;28;20473;-69
2023/05/14 00:51:33;;;;;;;40.22;6.32;;;18.90;99.90;;;;;;5071315;28;20035;-69
2023/05/14 00:53:58;;;;;;;;;;;18.80;99.90;;;;;;5071316;28;20025;-68
2023/05/14 00:56:26;;;;;;;46.63;6.57;;;18.70;99.90;;;;;;5071029;28;19911;-70
2023/05/14 00:58:52;;;;;;;42.47;6.00;;;18.80;99.90;;;;;;5071076;28;20028;-68
2023/05/14 01:01:18;;;;;;;31.27;5.85;;;18.80;99.90;;;;;;5071340;28;20039;-69
2023/05/14 01:03:44;;;;;;;35.97;5.68;;;18.90;99.90;;;;;;5069460;28;20500;-70
2023/05/14 01:06:30;;;;;;;43.40;5.25;;;18.80;99.90;;;;;;5071145;28;20436;-69
2023/05/14 01:09:14;;;;;;;35.78;5.65;;;18.80;99.90;;;;;;5073141;28;20032;-70
2023/05/14 01:11:40;;;;;;;31.42;6.35;;;18.80;99.90;;;;;;5073257;28;20055;-69
2023/05/14 01:14:16;;;;;;;38.90;6.15;;;18.90;99.90;;;;;;5074803;28;20376;-68
2023/05/14 01:16:43;;;;;;;;;;;18.90;99.90;;;;;;5073680;28;20028;-69
2023/05/14 01:19:41;;;;;;;32.50;5.63;;;18.90;99.90;;;;;;5074465;28;19939;-70
2023/05/14 01:22:07;;;;;;;41.22;5.32;;;18.90;99.90;;;;;;5066451;28;20096;-70
2023/05/14 01:24:33;;;;;;;37.53;5.57;;;18.90;99.90;;;;;;5074365;28;20103;-70
2023/05/14 01:27:22;;;;;;;40.17;6.13;;;19.00;99.90;;;;;;5074394;28;20074;-69
2023/05/14 01:30:26;;;;;;;32.35;5.82;;;18.90;99.90;;;;;;5074217;28;20029;-68
2023/05/14 01:32:57;;;;;;;37.83;6.07;;;18.90;99.90;;;;;;5012715;28;20042;-70
2023/05/14 01:35:26;;;;;;;43.28;6.50;;;18.90;99.90;;;;;;5012864;28;20132;-70
2023/05/14 01:38:00;;;;;;;30.70;5.28;;;18.90;99.90;;;;;;5012407;28;20053;-69
2023/05/14 01:40:27;;;;;;;35.85;5.72;;;18.90;99.90;;;;;;5012377;28;20222;-69
2023/05/14 01:42:53;;;;;;;34.67;5.70;;;18.90;99.90;;;;;;5012294;28;20041;-70
2023/05/14 01:45:20;;;;;;;34.15;5.93;;;18.90;99.90;;;;;;5012246;28;20606;-67
2023/05/14 01:47:46;;;;;;;;;;;18.90;99.90;;;;;;5012928;28;20036;-69
2023/05/14 01:50:13;;;;;;;31.08;5.35;;;18.80;99.90;;;;;;5012225;28;19909;-69
2023/05/14 01:52:39;;;;;;;48.53;6.00;;;18.80;99.90;;;;;;5011980;28;20164;-70
2023/05/14 01:55:05;;;;;;;;;;;18.70;99.90;;;;;;5012687;28;20041;-69
2023/05/14 01:57:32;;;;;;;28.70;5.20;;;18.60;99.90;;;;;;4995397;28;20024;-69
2023/05/14 01:59:58;;;;;;;33.88;6.32;;;18.70;99.90;;;;;;4995430;28;20526;-70
2023/05/14 02:02:24;;;;;;;30.75;5.15;;;18.70;99.90;;;;;;4995192;28;20491;-69
2023/05/14 02:04:51;;;;;;;45.00;6.38;;;18.70;99.90;;;;;;5011746;28;20105;-69
2023/05/14 02:07:17;;;;;;;39.70;5.38;;;18.70;99.90;;;;;;5012082;28;20139;-70
2023/05/14 02:09:44;;;;;;;29.20;6.25;;;18.70;99.90;;;;;;5037618;28;20033;-69
2023/05/14 02:12:12;;;;;;;36.40;6.97;;;18.70;99.90;;;;;;5053554;28;20125;-69
2023/05/14 02:14:39;;;;;;;32.67;4.97;;;18.70;99.90;;;;;;5053957;28;20112;-68
2023/05/14 02:17:05;;;;;;;30.67;5.70;;;18.70;99.90;;;;;;5053851;28;20028;-68
2023/05/14 02:19:31;;;;;;;36.63;6.20;;;18.70;99.90;;;;;;5065602;28;20064;-69
2023/05/14 02:21:59;;;;;;;28.85;5.03;;;18.70;99.90;;;;;;5073035;28;20548;-69
2023/05/14 02:24:26;;;;;;;39.97;6.55;;;18.70;99.90;;;;;;5073736;28;20446;-68
2023/05/14 02:26:52;;;;;;;37.33;5.90;;;18.80;99.90;;;;;;5073178;28;20055;-68
2023/05/14 02:29:18;;;;;;;38.70;5.75;;;18.80;99.90;;;;;;5072069;28;20184;-69
2023/05/14 02:31:44;;;;;;;35.42;6.20;;;18.80;99.90;;;;;;5073739;28;20025;-70
2023/05/14 02:34:10;;;;;;;33.55;5.43;;;18.80;99.90;;;;;;5073781;28;20032;-68
2023/05/14 02:36:36;;;;;;;30.95;5.35;;;18.70;99.90;;;;;;5073409;28;20512;-70
2023/05/14 02:39:03;;;;;;;30.15;5.90;;;18.70;99.90;;;;;;5073631;28;20125;-68
2023/05/14 02:41:29;;;;;;;44.47;6.13;;;18.60;99.90;;;;;;5072930;28;20028;-68
2023/05/14 02:43:55;;;;;;;42.08;5.78;;;18.60;99.90;;;;;;5073544;28;20024;-67
2023/05/14 02:46:21;;;;;;;38.13;5.70;;;18.50;99.90;;;;;;5073112;28;20090;-69
2023/05/14 02:48:48;;;;;;;28.88;6.35;;;18.60;99.90;;;;;;5072995;28;20025;-70
2023/05/14 02:51:15;;;;;;;41.08;5.63;;;18.60;99.90;;;;;;5073026;28;20469;-69
2023/05/14 02:53:41;;;;;;;37.03;6.53;;;18.60;99.90;;;;;;5072995;28;20012;-69
2023/05/14 02:56:07;;;;;;;29.65;5.10;;;18.60;99.90;;;;;;5073040;28;20107;-69
2023/05/14 02:58:33;;;;;;;42.20;6.80;;;18.60;99.90;;;;;;5073227;28;20468;-69
2023/05/14 03:00:59;;;;;;;45.58;7.50;;;18.60;99.90;;;;;;5072795;28;20051;-67
2023/05/14 03:03:25;;;;;;;41.17;6.40;;;18.80;99.90;;;;;;5071351;28;20016;-67
2023/05/14 03:05:51;;;;;;;33.78;6.10;;;18.80;99.90;;;;;;5071129;28;20119;-69
2023/05/14 03:08:17;;;;;;;26.48;5.43;;;18.90;99.90;;;;;;5072676;28;20027;-68
2023/05/14 03:10:44;;;;;;;40.42;6.25;;;18.90;99.90;;;;;;5070963;28;20086;-64
2023/05/14 03:13:10;;;;;;;51.97;6.38;;;18.90;99.90;;;;;;5068768;28;20028;-68
2023/05/14 03:15:36;;;;;;;36.05;6.88;;;18.90;99.90;;;;;;5072919;28;20214;-69
2023/05/14 03:18:02;;;;;;;38.00;6.15;;;18.90;99.90;;;;;;5064891;28;20585;-68
2023/05/14 03:20:28;;;;;;;35.25;5.50;;;18.90;99.90;;;;;;5070663;28;20037;-69
2023/05/14 03:22:56;;;;;;;27.08;4.95;;;18.90;99.90;;;;;;5071850;28;20706;-67
2023/05/14 03:25:22;;;;;;;32.25;5.88;;;18.90;99.90;;;;;;5071948;28;20032;-68
2023/05/14 03:27:48;;;;;;;37.08;6.35;;;18.80;99.90;;;;;;5075024;28;20031;-68
2023/05/14 03:30:14;;;;;;;38.00;6.68;;;18.80;99.90;;;;;;5071277;28;20345;-68
2023/05/14 03:32:41;;;;;;;39.15;5.60;;;18.80;99.90;;;;;;5062335;28;20020;-69
2023/05/14 03:35:07;;;;;;;31.70;5.45;;;18.90;99.90;;;;;;5072575;28;20034;-68
2023/05/14 03:37:34;;;;;;;37.78;6.05;;;18.90;99.90;;;;;;5072114;28;20016;-69
2023/05/14 03:40:00;;;;;;;26.42;5.22;;;18.90;99.90;;;;;;5071943;28;20037;-70
2023/05/14 03:42:26;;;;;;;31.92;5.30;;;18.80;99.90;;;;;;5071848;28;20031;-70
2023/05/14 03:44:52;;;;;;;28.95;5.28;;;18.70;99.90;;;;;;5072063;28;20131;-69
2023/05/14 03:47:18;;;;;;;31.35;5.63;;;18.70;99.90;;;;;;5072012;28;20031;-70
2023/05/14 03:49:44;;;;;;;40.08;6.13;;;18.70;99.90;;;;;;5075983;28;20075;-70
2023/05/14 03:52:10;;;;;;;34.90;6.13;;;18.70;99.90;;;;;;5066675;28;20094;-68
2023/05/14 03:54:37;;;;;;;33.38;5.50;;;18.70;99.90;;;;;;5061178;28;20039;-70
2023/05/14 03:57:03;;;;;;;;;;;18.70;99.90;;;;;;5062245;28;20031;-67
2023/05/14 03:59:29;;;;;;;38.28;6.35;;;18.70;99.90;;;;;;5061173;28;19905;-68
2023/05/14 04:01:56;;;;;;;30.10;6.38;;;18.70;99.90;;;;;;5059901;28;20107;-68
2023/05/14 04:04:23;;;;;;;35.97;5.40;;;18.60;99.90;;;;;;5058993;28;20024;-69
2023/05/14 04:06:49;;;;;;;37.70;6.35;;;18.70;99.90;;;;;;5061358;28;20334;-69
2023/05/14 04:09:15;;;;;;;37.80;6.38;;;18.70;99.90;;;;;;5067193;28;20024;-70
2023/05/14 04:11:41;;;;;;;34.50;6.22;;;18.70;99.90;;;;;;5063177;28;20115;-70
2023/05/14 04:14:07;;;;;;;32.42;6.07;;;18.70;99.90;;;;;;5070257;28;20029;-70
2023/05/14 04:16:33;;;;;;;44.38;7.40;;;18.80;99.90;;;;;;5071430;28;20028;-69
2023/05/14 04:19:03;;;;;;;35.60;5.72;;;18.90;99.90;;;;;;5069411;28;20071;-69
2023/05/14 04:21:30;;;;;;;41.50;6.43;;;18.90;99.90;;;;;;5072627;28;20486;-66
2023/05/14 04:23:57;;;;;;;38.50;5.53;;;18.90;99.90;;;;;;5091862;28;20020;-69
2023/05/14 04:26:23;;;;;;;33.47;6.93;;;18.90;99.90;;;;;;5086348;28;20125;-69
2023/05/14 04:28:49;;;;;;;45.00;6.45;;;19.10;99.90;;;;;;5071278;28;20067;-70
2023/05/14 04:31:15;;;;;;;38.95;6.55;;;19.20;99.90;;;;;;5071255;28;20092;-70
2023/05/14 04:33:41;;;;;;;39.65;6.93;;;19.20;99.90;;;;;;5069742;28;20025;-70
2023/05/14 04:36:07;;;;;;;48.30;6.70;;;19.00;99.90;;;;;;5071443;28;20021;-70
2023/05/14 04:38:33;;;;;;;40.90;7.25;;;19.00;99.90;;;;;;5071184;28;20112;-70
2023/05/14 04:41:00;;;;;;;44.60;6.30;;;18.90;99.90;;;;;;5073526;28;20511;-70
2023/05/14 04:43:26;;;;;;;33.28;5.80;;;18.90;99.90;;;;;;5091243;28;20063;-69
2023/05/14 04:45:52;;;;;;;45.22;6.82;;;18.90;99.90;;;;;;5077594;28;20040;-70
2023/05/14 04:48:18;;;;;;;46.92;6.32;;;18.90;99.90;;;;;;5071008;28;20198;-70
2023/05/14 04:50:44;;;;;;;39.00;6.18;;;18.90;99.90;;;;;;5071248;28;20498;-72
2023/05/14 04:53:11;;;;;;;50.70;7.40;;;18.90;99.90;;;;;;5071511;28;20059;-70
2023/05/14 04:55:37;;;;;;;42.05;7.32;;;19.00;99.90;;;;;;5071499;28;20044;-70
2023/05/14 04:58:03;;;;;;;54.85;8.80;;;18.90;99.90;;;;;;5071334;28;20107;-70
2023/05/14 05:00:29;;;;;;;57.90;8.05;;;18.90;99.90;;;;;;5071303;28;20109;-70
2023/05/14 05:02:55;;;;;;;80.57;8.90;;;18.80;99.90;;;;;;5071149;28;20104;-71
2023/05/14 05:05:22;;;;;;;61.03;8.43;;;18.70;99.90;;;;;;5071199;28;20136;-70
2023/05/14 05:07:48;;;;;;;55.22;8.55;;;18.60;99.90;;;;;;5071061;28;20025;-69
2023/05/14 05:10:14;;;;;;;48.13;8.43;;;18.60;99.90;;;;;;5068526;28;20052;-71
2023/05/14 05:12:40;;;;;;;69.32;9.00;;;18.60;99.90;;;;;;5060335;28;20044;-70
2023/05/14 05:15:08;;;;;;;;;;;18.50;99.90;;;;;;5059768;28;20024;-70
2023/05/14 05:17:35;;;;;;;41.47;6.45;;;18.50;99.90;;;;;;5059335;28;19904;-68
2023/05/14 05:20:03;;;;;;;56.70;8.02;;;18.60;99.90;;;;;;5063200;28;20032;-70
2023/05/14 05:22:29;;;;;;;47.83;7.32;;;18.80;99.90;;;;;;5068706;28;20098;-70
2023/05/14 05:24:55;;;;;;;54.92;8.30;;;18.90;99.90;;;;;;5070507;28;20078;-69
2023/05/14 05:27:21;;;;;;;47.47;8.10;;;19.10;99.90;;;;;;5070523;28;20025;-70
2023/05/14 05:29:47;;;;;;;37.33;6.75;;;19.20;99.90;;;;;;5070722;28;20031;-69
2023/05/14 05:32:14;;;;;;;41.80;6.13;;;19.20;99.90;;;;;;5070839;28;20096;-69
2023/05/14 05:34:40;;;;;;;46.30;6.85;;;19.30;99.90;;;;;;5069052;28;20115;-70
2023/05/14 05:37:19;;;;;;;55.17;7.65;;;19.20;99.90;;;;;;5070532;28;20445;-71
2023/05/14 05:39:46;;;;;;;35.83;6.50;;;19.10;99.90;;;;;;5070412;28;20033;-71
2023/05/14 05:42:13;;;;;;;39.67;6.68;;;19.20;99.90;;;;;;5064161;28;20036;-68
2023/05/14 05:44:39;;;;;;;41.92;7.50;;;19.10;99.90;;;;;;5070194;28;20025;-71
2023/05/14 05:47:06;;;;;;;39.88;6.32;;;19.00;99.90;;;;;;5056048;28;20044;-70
2023/05/14 05:49:32;;;;;;;45.08;6.97;;;19.10;99.90;;;;;;5050242;28;20049;-71
2023/05/14 05:51:58;;;;;;;44.50;6.25;;;18.90;99.90;;;;;;5048848;28;20448;-70
2023/05/14 05:54:24;;;;;;;49.30;6.60;;;18.90;99.90;;;;;;5048973;28;20025;-68
2023/05/14 05:56:51;;;;;;;53.13;6.85;;;18.90;99.90;;;;;;5053089;28;20135;-69
2023/05/14 05:59:17;;;;;;;45.67;6.30;;;18.90;99.90;;;;;;5053901;28;20025;-70
2023/05/14 06:01:43;;;;;;;50.47;7.18;;;19.00;99.90;;;;;;5053683;28;20033;-69
2023/05/14 06:04:09;;;;;;;42.67;8.05;;;19.10;99.90;;;;;;5053887;28;20041;-70
2023/05/14 06:06:35;;;;;;;60.72;7.57;;;19.00;99.90;;;;;;5054076;28;20029;-69
2023/05/14 06:09:01;;;;;;;50.72;7.75;;;19.00;99.90;;;;;;5054030;28;20370;-71
2023/05/14 06:11:27;;;;;;;61.80;9.63;;;19.00;99.90;;;;;;5053548;28;20031;-70
2023/05/14 06:13:53;;;;;;;51.25;7.50;;;19.10;99.90;;;;;;5052206;28;20078;-70
2023/05/14 06:16:19;;;;;;;57.30;7.65;;;19.20;99.90;;;;;;5053727;28;20028;-69
2023/05/14 06:18:46;;;;;;;71.47;9.40;;;19.20;99.90;;;;;;5060381;28;20063;-69
2023/05/14 06:21:12;;;;;;;57.72;8.18;;;19.20;99.90;;;;;;5074000;28;20036;-72
2023/05/14 06:23:38;;;;;;;61.88;7.90;;;19.20;99.90;;;;;;5074140;28;20038;-70
2023/05/14 06:26:04;;;;;;;58.15;8.00;;;19.20;99.90;;;;;;5073998;28;20107;-72
2023/05/14 06:28:30;;;;;;;75.53;8.57;;;19.30;99.90;;;;;;5074467;28;20395;-70
2023/05/14 06:30:56;;;;;;;73.68;10.50;;;19.30;99.90;;;;;;5073265;28;20025;-70
2023/05/14 06:33:29;;;;;;;74.95;10.23;;;19.30;99.90;;;;;;5074415;28;20032;-68
2023/05/14 06:35:59;;;;;;;84.22;10.95;;;19.40;99.90;;;;;;5074186;28;20393;-69
2023/05/14 06:38:26;;;;;;;58.63;8.32;;;19.40;99.90;;;;;;5073925;28;20485;-71
2023/05/14 06:40:52;;;;;;;58.35;8.90;;;19.50;99.90;;;;;;5073470;28;20036;-70
2023/05/14 06:43:18;;;;;;;79.15;10.20;;;19.60;99.90;;;;;;5073822;28;20480;-69
2023/05/14 06:45:48;;;;;;;51.67;8.05;;;19.60;99.90;;;;;;5073971;28;20028;-70
2023/05/14 06:48:15;;;;;;;66.07;8.50;;;19.50;99.90;;;;;;5073473;28;20024;-71
2023/05/14 06:50:41;;;;;;;63.63;8.63;;;19.70;99.90;;;;;;5074009;28;20025;-70
2023/05/14 06:53:07;;;;;;;65.20;9.07;;;19.60;99.90;;;;;;5073527;28;20369;-69
2023/05/14 06:55:33;;;;;;;67.40;8.25;;;19.60;99.90;;;;;;5073604;28;20054;-70
2023/05/14 06:57:59;;;;;;;51.75;8.43;;;19.70;99.90;;;;;;5073269;28;20078;-70
2023/05/14 07:00:25;;;;;;;60.78;9.00;;;19.70;99.90;;;;;;5073313;28;20131;-70
2023/05/14 07:02:51;;;;;;;64.25;9.27;;;19.70;99.90;;;;;;5073439;28;20056;-71
2023/05/14 07:05:17;;;;;;;75.75;9.90;;;19.80;99.90;;;;;;5073341;28;20036;-70
2023/05/14 07:07:44;;;;;;;59.70;9.27;;;19.80;99.90;;;;;;5073239;28;20538;-71
2023/05/14 07:10:10;;;;;;;82.63;9.98;;;19.90;99.90;;;;;;5073252;28;20025;-71
2023/05/14 07:12:36;;;;;;;54.08;8.80;;;19.90;99.90;;;;;;5073232;28;20119;-70
2023/05/14 07:15:02;;;;;;;57.55;7.78;;;19.90;99.90;;;;;;5073115;28;20476;-70
2023/05/14 07:17:28;;;;;;;59.13;8.63;;;19.90;99.90;;;;;;5073454;28;20408;-70
2023/05/14 07:19:54;;;;;;;49.40;6.80;;;19.90;99.90;;;;;;5072758;28;20168;-72
2023/05/14 07:22:21;;;;;;;64.55;8.25;;;20.00;99.90;;;;;;5072944;28;20033;-71
2023/05/14 07:24:48;;;;;;;55.80;7.63;;;20.10;99.90;;;;;;5073034;28;20024;-71
2023/05/14 07:27:15;;;;;;;;;;;20.20;99.90;;;;;;5073052;28;20017;-69
2023/05/14 07:29:42;;;;;;;50.05;8.02;;;20.30;99.90;;;;;;5073243;28;19905;-71
2023/05/14 07:32:08;;;;;;;58.92;7.78;;;20.40;99.90;;;;;;5072777;28;20048;-71
2023/05/14 07:34:34;;;;;;;55.70;9.07;;;20.40;99.90;;;;;;5072767;28;20020;-70
2023/05/14 07:37:00;;;;;;;46.35;6.85;;;20.50;99.90;;;;;;5073043;28;20035;-71
2023/05/14 07:39:27;;;;;;;63.00;7.55;;;20.50;99.90;;;;;;5072704;28;20128;-70
2023/05/14 07:41:53;;;;;;;47.55;7.82;;;20.70;99.90;;;;;;5071062;28;20105;-72
2023/05/14 07:44:20;;;;;;;;;;;21.10;99.90;;;;;;5073208;28;20377;-72
2023/05/14 07:46:46;;;;;;;;;;;21.30;99.90;;;;;;5072721;28;19960;-70
2023/05/14 07:49:12;;;;;;;37.30;7.03;;;21.50;99.90;;;;;;5072332;28;19991;-71
2023/05/14 07:51:38;;;;;;;46.28;7.30;;;21.50;99.90;;;;;;5072307;28;20028;-72
2023/05/14 07:54:04;;;;;;;43.95;6.38;;;21.50;99.90;;;;;;5072192;28;20091;-70
2023/05/14 07:56:30;;;;;;;33.38;5.47;;;21.50;99.90;;;;;;5072195;28;20029;-70
2023/05/14 07:58:59;;;;;;;53.60;7.15;;;21.40;99.90;;;;;;5072215;28;20426;-70
2023/05/14 08:01:25;;;;;;;42.22;6.20;;;21.40;99.90;;;;;;5072095;28;20174;-69
2023/05/14 08:03:51;;;;;;;32.13;6.05;;;21.50;99.90;;;;;;5072576;28;20111;-70
2023/05/14 08:06:19;;;;;;;40.88;6.80;;;21.50;99.90;;;;;;5072395;28;20025;-68
2023/05/14 08:08:45;;;;;;;45.80;7.07;;;21.40;99.90;;;;;;5072275;28;20021;-70
2023/05/14 08:11:12;;;;;;;46.40;5.93;;;21.60;99.90;;;;;;5069062;28;20507;-70
2023/05/14 08:13:38;;;;;;;53.55;7.80;;;21.90;99.90;;;;;;5059486;28;20033;-70
2023/05/14 08:16:04;;;;;;;46.00;7.97;;;21.90;99.90;;;;;;5054176;28;20029;-70
2023/05/14 08:18:33;;;;;;;47.90;7.40;;;22.00;99.90;;;;;;5055591;28;20131;-67
2023/05/14 08:21:00;;;;;;;49.55;6.63;;;22.10;99.90;;;;;;5073091;28;20032;-71
2023/05/14 08:23:26;;;;;;;46.55;7.60;;;22.20;99.90;;;;;;5072929;28;20025;-71
2023/05/14 08:25:52;;;;;;;52.40;8.00;;;22.30;99.90;;;;;;5072913;28;20358;-71
2023/05/14 08:28:18;;;;;;;67.95;8.82;;;22.50;99.90;;;;;;5072656;28;20031;-71
2023/05/14 08:30:44;;;;;;;60.58;9.38;;;22.60;99.90;;;;;;5072657;28;20352;-69
2023/05/14 08:33:11;;;;;;;67.80;10.15;;;22.70;99.90;;;;;;5072265;28;20056;-70
2023/05/14 08:35:37;;;;;;;79.75;10.57;;;22.90;99.90;;;;;;5071963;28;20106;-68
2023/05/14 08:38:03;;;;;;;58.85;9.27;;;23.10;99.90;;;;;;5071913;28;20024;-67
2023/05/14 08:40:29;;;;;;;64.43;10.27;;;23.20;99.90;;;;;;5071848;28;20105;-67
2023/05/14 08:42:56;;;;;;;63.95;9.60;;;22.90;99.90;;;;;;5070292;28;20097;-67
2023/05/14 08:45:32;;;;;;;79.32;10.07;;;23.00;99.90;;;;;;5072068;28;20028;-69
2023/05/14 08:48:07;;;;;;;65.35;10.48;;;22.80;99.90;;;;;;5071991;28;20021;-70
2023/05/14 08:50:34;;;;;;;65.32;8.73;;;22.80;99.90;;;;;;5071991;28;20021;-71
2023/05/14 08:53:00;;;;;;;79.22;11.05;;;22.30;99.90;;;;;;5071737;28;20021;-70
2023/05/14 08:55:28;;;;;;;60.25;9.32;;;22.60;99.90;;;;;;5071938;28;20104;-69
2023/05/14 08:57:55;;;;;;;68.30;9.70;;;22.90;99.90;;;;;;5070961;28;20020;-67
2023/05/14 09:00:22;;;;;;;64.10;10.02;;;23.10;99.90;;;;;;5071419;28;20418;-70
2023/05/14 09:02:48;;;;;;;89.47;10.63;;;23.80;99.90;;;;;;5071276;28;20032;-69
2023/05/14 09:05:17;;;;;;;78.55;9.75;;;24.20;99.90;;;;;;5071334;28;20025;-71
2023/05/14 09:07:44;;;;;;;69.70;10.55;;;24.70;99.90;;;;;;5071303;28;20097;-70
2023/05/14 09:10:10;;;;;;;;;;;24.90;99.90;;;;;;5071690;28;20024;-70
2023/05/14 09:12:36;;;;;;;89.85;9.95;;;24.40;99.90;;;;;;5071185;28;19904;-69
2023/05/14 09:15:03;;;;;;;74.90;11.07;;;24.30;99.90;;;;;;5071344;28;20065;-70
2023/05/14 09:17:29;;;;;;;79.90;10.52;;;24.30;99.90;;;;;;5071555;28;20023;-71
2023/05/14 09:19:55;;;;;;;84.13;11.80;;;24.60;99.90;;;;;;5070625;28;20099;-69
2023/05/14 09:22:21;;;;;;;69.32;10.80;;;24.50;99.90;;;;;;5071140;28;20035;-69
2023/05/14 09:25:02;;;;;;;66.80;10.63;;;24.20;99.90;;;;;;5071098;28;20024;-69
2023/05/14 09:27:30;;;;;;;72.40;11.48;;;24.00;99.90;;;;;;5071021;28;20025;-70
2023/05/14 09:30:13;;;;;;;72.47;11.77;;;24.10;99.90;;;;;;5073204;28;20453;-70
2023/05/14 09:32:42;;;;;;;64.00;9.93;;;24.50;99.90;;;;;;5075344;28;20058;-71
2023/05/14 09:35:13;;;;;;;66.00;10.48;;;24.40;99.90;;;;;;5074632;28;20028;-74
2023/05/14 09:37:44;;;;;;;78.38;10.63;;;23.90;99.90;;;;;;5075011;28;20024;-72
2023/05/14 09:40:12;;;;;;;75.60;10.77;;;23.60;99.90;;;;;;5074802;28;20058;-72
2023/05/14 09:42:38;;;;;;;78.38;11.73;;;23.40;99.90;;;;;;5073797;28;20027;-71
2023/05/14 09:45:07;;;;;;;66.15;11.85;;;22.80;99.90;;;;;;5072975;28;20078;-71
2023/05/14 09:47:33;;;;;;;83.40;10.77;;;22.30;99.90;;;;;;5070317;28;20333;-70
2023/05/14 09:49:59;;;;;;;71.20;12.25;;;21.90;99.90;;;;;;5072668;28;20027;-69
2023/05/14 09:52:25;;;;;;;69.65;11.73;;;21.50;99.90;;;;;;5074461;28;20050;-71
2023/05/14 09:54:52;;;;;;;63.72;11.57;;;21.10;99.90;;;;;;5073608;28;20032;-70
2023/05/14 09:57:19;;;;;;;71.05;11.63;;;21.20;99.90;;;;;;5073813;28;20056;-70
2023/05/14 09:59:45;;;;;;;64.03;10.68;;;20.90;99.90;;;;;;5074230;28;20107;-70
2023/05/14 10:02:21;;;;;;;65.90;10.48;;;20.60;99.90;;;;;;5074064;28;20522;-70
2023/05/14 10:04:57;;;;;;;75.40;11.02;;;20.70;99.90;;;;;;5074229;28;20353;-70
2023/05/14 10:07:29;;;;;;;77.88;11.27;;;20.70;99.90;;;;;;5074140;28;20032;-69
2023/05/14 10:10:02;;;;;;;59.28;11.55;;;20.90;99.90;;;;;;5074359;28;20031;-70
2023/05/14 10:12:33;;;;;;;295.42;27.70;;;21.20;99.90;;;;;;5073736;28;20051;-70
2023/05/14 10:15:05;;;;;;;96.03;12.65;;;21.80;99.90;;;;;;5073971;28;20140;-69
2023/05/14 10:17:36;;;;;;;76.63;10.82;;;22.10;99.90;;;;;;5074317;28;20059;-69
2023/05/14 10:20:04;;;;;;;65.18;10.50;;;22.40;99.90;;;;;;5059566;28;20136;-71
2023/05/14 10:22:34;;;;;;;68.60;10.93;;;23.10;99.90;;;;;;5053642;28;20037;-70
2023/05/14 10:25:01;;;;;;;61.72;10.65;;;23.10;99.90;;;;;;5053788;28;20110;-70
2023/05/14 10:27:28;;;;;;;57.55;9.50;;;23.70;99.90;;;;;;5053658;28;20029;-70
2023/05/14 10:29:55;;;;;;;64.63;10.50;;;23.60;99.90;;;;;;5052170;28;20036;-70
2023/05/14 10:32:24;;;;;;;65.18;9.90;;;24.00;99.90;;;;;;5053841;28;20029;-71
2023/05/14 10:34:52;;;;;;;64.05;9.52;;;24.30;99.90;;;;;;5053904;28;20025;-70
2023/05/14 10:37:36;;;;;;;61.13;10.10;;;24.50;99.90;;;;;;5053542;28;20033;-70
2023/05/14 10:40:05;;;;;;;68.68;11.35;;;24.50;99.90;;;;;;5054076;28;20053;-69
2023/05/14 10:42:42;;;;;;;69.32;9.85;;;24.40;99.90;;;;;;5053092;28;20525;-71
2023/05/14 10:45:13;;;;;;;75.32;9.90;;;24.70;99.90;;;;;;5053587;28;20043;-71
2023/05/14 10:47:44;;;;;;;65.50;9.18;;;25.00;99.90;;;;;;5053804;28;20116;-69
2023/05/14 10:50:12;;;;;;;62.40;9.85;;;24.80;99.90;;;;;;5071555;28;20025;-70
2023/05/14 10:52:43;;;;;;;56.70;8.93;;;24.70;99.90;;;;;;5073682;28;20078;-70
2023/05/14 10:55:14;;;;;;;63.10;9.23;;;24.60;99.90;;;;;;5073457;28;20453;-70
2023/05/14 10:57:45;;;;;;;61.03;9.55;;;25.00;99.90;;;;;;5073176;28;20107;-69
2023/05/14 11:00:13;;;;;;;67.03;9.30;;;24.80;99.90;;;;;;5073311;28;20036;-71
2023/05/14 11:02:40;;;;;;;64.40;9.88;;;24.50;99.90;;;;;;5073239;28;20024;-70
2023/05/14 11:05:14;;;;;;;65.63;10.45;;;24.70;99.90;;;;;;5071961;28;20021;-69
2023/05/14 11:07:45;;;;;;;60.85;9.25;;;24.40;99.90;;;;;;5073369;28;20028;-69
2023/05/14 11:10:12;;;;;;;72.22;9.45;;;24.50;99.90;;;;;;5072919;28;20441;-70
2023/05/14 11:12:43;;;;;;;76.38;9.25;;;24.70;99.90;;;;;;5072911;28;20381;-71
2023/05/14 11:15:11;;;;;;;60.45;8.73;;;25.00;99.90;;;;;;5073295;28;20059;-70
2023/05/14 11:17:40;;;;;;;50.53;8.13;;;25.10;99.90;;;;;;5073196;28;20056;-68
2023/05/14 11:20:07;;;;;;;49.65;9.00;;;25.40;99.90;;;;;;5072512;28;20036;-70
2023/05/14 11:22:35;;;;;;;52.33;8.68;;;25.50;99.90;;;;;;5072467;28;20087;-69
2023/05/14 11:25:01;;;;;;;61.88;9.57;;;25.00;99.90;;;;;;5072527;28;20033;-70
2023/05/14 11:27:28;;;;;;;56.33;9.52;;;25.20;99.90;;;;;;5072554;28;20021;-70
2023/05/14 11:30:01;;;;;;;63.53;9.75;;;24.90;99.90;;;;;;5072434;28;20024;-69
2023/05/14 11:32:27;;;;;;;60.35;9.13;;;24.60;99.90;;;;;;5072737;28;20379;-68
2023/05/14 11:34:53;;;;;;;60.83;9.45;;;24.50;99.90;;;;;;5072366;28;20122;-70
2023/05/14 11:37:19;;;;;;;65.07;9.85;;;24.80;99.90;;;;;;5072283;28;20025;-70
2023/05/14 11:39:57;;;;;;;55.05;9.45;;;24.90;99.90;;;;;;5072283;28;20023;-70
2023/05/14 11:42:24;;;;;;;55.78;8.50;;;24.80;99.90;;;;;;5072473;28;20154;-69
2023/05/14 11:44:52;;;;;;;64.43;10.02;;;24.60;99.90;;;;;;5104700;28;20192;-71
2023/05/14 11:47:20;;;;;;;57.63;8.35;;;24.60;99.90;;;;;;5072226;28;20097;-70
2023/05/14 11:49:47;;;;;;;54.80;9.18;;;24.70;99.90;;;;;;5072013;28;20043;-69
2023/05/14 11:52:15;;;;;;;53.60;8.32;;;25.00;99.90;;;;;;5072234;28;20028;-71
2023/05/14 11:54:44;;;;;;;60.28;9.27;;;25.30;99.90;;;;;;5072110;28;20372;-69
2023/05/14 11:57:14;;;;;;;50.95;8.73;;;25.60;99.90;;;;;;5070405;28;20123;-69
2023/05/14 11:59:40;;;;;;;55.67;8.13;;;25.30;99.90;;;;;;5061427;28;20425;-70
2023/05/14 12:02:18;;;;;;;71.78;9.23;;;25.40;99.90;;;;;;5059497;28;20087;-70
2023/05/14 12:04:48;;;;;;;55.28;7.57;;;25.80;99.90;;;;;;5059478;28;20421;-69
2023/05/14 12:07:15;;;;;;;53.90;8.57;;;26.00;99.90;;;;;;5065458;28;20481;-70
2023/05/14 12:09:50;;;;;;;51.40;8.43;;;25.70;99.90;;;;;;5069371;28;20372;-70
2023/05/14 12:12:21;;;;;;;44.67;8.20;;;25.40;99.90;;;;;;5051472;28;20150;-70
2023/05/14 12:14:48;;;;;;;52.90;8.18;;;25.40;99.90;;;;;;5051714;28;20031;-70
2023/05/14 12:17:32;;;;;;;51.05;7.00;;;25.40;99.90;;;;;;5051963;28;20400;-67
2023/05/14 12:19:59;;;;;;;52.58;7.97;;;25.40;99.90;;;;;;5065766;28;20053;-70
2023/05/14 12:22:29;;;;;;;55.97;8.30;;;25.70;99.90;;;;;;5071808;28;20075;-71
2023/05/14 12:25:00;;;;;;;50.08;7.00;;;26.30;99.90;;;;;;5071818;28;20083;-71
2023/05/14 12:27:27;;;;;;;58.20;8.18;;;26.70;99.90;;;;;;5071817;28;20513;-69
2023/05/14 12:30:02;;;;;;;52.58;7.53;;;26.40;99.90;;;;;;5072297;28;20037;-70
2023/05/14 12:32:31;;;;;;;54.55;7.90;;;26.70;99.90;;;;;;5072015;28;20496;-70
2023/05/14 12:34:58;;;;;;;54.58;8.60;;;26.80;99.90;;;;;;5072460;28;20024;-70
2023/05/14 12:37:24;;;;;;;60.92;8.10;;;26.60;99.90;;;;;;5071905;28;20120;-71
2023/05/14 12:39:50;;;;;;;53.40;8.82;;;26.40;99.90;;;;;;5103902;28;20499;-71